• Join FlightAware (Why Join?)
  • Login
  • US Flag 
11:58AM EDT


 

Airport Tracker/Info


-or-


 

Live Flight TrackerFlight Track Log ✈ QXE2087 ✈ 18-Feb-2014 ✈ KALW - KSEA

Flight Track Log - Related Links

Times and Time Zones

All times are in EST time to prevent confusion due to time zone crossing. See the QXE2087 flight status page for this flight to view local times or setup timezone preferences in your user account.

Time Position Orientation Groundspeed Altitude Reporting Facility
EST Latitude Longitude Course Direction KTS MPH feet Rate Location/Type
09:21AM 46.1949 -118.8077 286° West  Level FlightAware Approximate
09:22AM 46.2171 -118.9130 287° West  Level FlightAware Approximate
09:23AM 46.2397 -119.0183 287° West  Level FlightAware Approximate
09:24AM 46.2562 -119.1247 290° West  Level FlightAware Approximate
09:25AM 46.2822 -119.2283 290° West  Level FlightAware Approximate
09:26AM 46.3082 -119.3321 290° West  Level FlightAware Approximate
09:27AM 46.3333 -119.4361 270° West  Level FlightAware Approximate
09:28AM 46.3500 -119.5423 270° West  Level FlightAware Approximate
09:29AM 46.3742 -119.6466 290° West  Level FlightAware Approximate
09:30AM 46.4022 -119.7493 293° West  Level FlightAware Approximate
09:31AM 46.4334 -119.8502 284° West  Level FlightAware Approximate
09:32AM 46.4518 -119.9575 290° West  Level FlightAware Approximate
09:33AM 46.4772 -120.0618 289° West  Level FlightAware Approximate
09:34AM 46.5025 -120.1663 289° West  Level FlightAware Approximate
09:35AM 46.5277 -120.2708 289° West  Level FlightAware Approximate
09:36AM 46.5528 -120.3754 289° West  Level FlightAware Approximate
09:37AM 46.5830 -120.4769 299° West  Level FlightAware Approximate
09:38AM 46.6208 -120.5729 314° West  Level FlightAware Approximate
09:39AM 46.6682 -120.6590 302° West  Level FlightAware Approximate
09:40AM 46.7095 -120.7524 306° West  Level FlightAware Approximate
09:41AM 46.7555 -120.8314 299° West  Level FlightAware Approximate
09:42AM 46.7898 -120.9229 299° West  Level FlightAware Approximate
09:43AM 46.8297 -121.0093 306° West  Level FlightAware Approximate
09:44AM 46.8702 -121.0952 303° West  Level FlightAware Approximate
09:45AM 46.9092 -121.1828 303° West  Level FlightAware Approximate
09:46AM 46.9482 -121.2705 303° West  Level FlightAware Approximate
09:47AM 46.9887 -121.3500 North  Level FlightAware Approximate
09:48AM 47.0321 -121.4221 303° West  Level FlightAware Approximate
09:49AM 47.0690 -121.5092 290° West  Level FlightAware Approximate
09:50AM 47.1016 -121.5985 310° West  Level FlightAware Approximate
09:51AM 47.1417 -121.6688 310° West  Level FlightAware Approximate
09:52AM 47.1727 -121.7453 306° West  Level FlightAware Approximate
09:53AM 47.2135 -121.8135 326° Northwest  Level FlightAware Approximate
09:54AM 47.2465 -121.8910 301° West  Level FlightAware Approximate
09:55AM 47.2781 -121.9703 301° West  Level FlightAware Approximate
09:56AM 47.3101 -122.0485 315° West  Level FlightAware Approximate
09:57AM 47.3463 -122.1222 296° West  Level FlightAware Approximate
09:58AM 47.3821 -122.1975 306° West  Level FlightAware Approximate
09:59AM 47.4192 -122.2718 306° West  Level FlightAware Approximate
10:00AM 47.4333 -122.3000 306° West  Level FlightAware Approximate
10:01AM 47.4499 -122.3118 306° West  Level Estimated
10:02AM 47.4499 -122.3118 306° West  Level Estimated
10:03AM 47.4499 -122.3118 306° West  Level Estimated
10:04AM 47.4499 -122.3118 306° West  Level Estimated
10:05AM 47.4499 -122.3118 306° West  Level Estimated
10:06AM 47.4499 -122.3118 306° West  Level Estimated
10:07AM 47.4499 -122.3118 306° West  Level Estimated
10:08AM 47.4499 -122.3118 183° South  Level Estimated
10:09AM 47.4499 -122.3118 183° South  Level Estimated
10:10AM 47.4499 -122.3118 183° South  Level Estimated
10:11AM 47.4499 -122.3118 183° South  Level Estimated
10:12AM 47.4499 -122.3118 183° South  Level Estimated
10:13AM 47.4499 -122.3118 180° South  Level Estimated
10:14AM 47.4499 -122.3118 180° South  Level Estimated
10:15AM 47.4499 -122.3118 180° South  Level Estimated
10:16AM 47.4499 -122.3118 180° South  Level Estimated
10:17AM 47.4499 -122.3118 180° South  Level Estimated
10:18AM 47.4499 -122.3118 180° South  Level Estimated
10:19AM 47.4499 -122.3118 180° South  Level Estimated
10:20AM 47.4499 -122.3118 180° South  Level Estimated
10:21AM 47.4499 -122.3118 180° South  Level Estimated
10:22AM 47.4499 -122.3118 180° South  Level Estimated
10:23AM 47.4499 -122.3118 180° South  Level Estimated
10:24AM 47.4499 -122.3118 180° South  Level Estimated
10:25AM 47.4499 -122.3118 180° South  Level Estimated
10:26AM 47.4499 -122.3118 180° South  Level Estimated
10:27AM 47.4499 -122.3118 180° South  Level Estimated
10:28AM 47.4499 -122.3118 180° South  Level Estimated
10:29AM 47.4499 -122.3118 180° South  Level Estimated
10:30AM 47.4499 -122.3118 180° South  Level Estimated
10:31AM 47.4499 -122.3118 180° South  Level Estimated